createdAt,value
2018-08-17T17:38:05.868Z,20.77
2018-08-17T21:45:04.969Z,31.33
2018-08-17T21:53:04.416Z,8.53
2018-08-17T21:58:07.828Z,9.13
2018-08-17T22:00:34.276Z,8.70
2018-08-17T22:03:00.764Z,8.90
2018-08-17T22:05:29.335Z,7.53
2018-08-17T22:07:55.778Z,6.37
2018-08-17T22:10:22.210Z,6.57
2018-08-17T22:12:48.639Z,6.53
2018-08-17T22:15:15.111Z,7.07
2018-08-17T22:17:41.590Z,7.27
2018-08-17T22:20:08.534Z,4.77
2018-08-17T22:22:34.971Z,7.37
2018-08-17T22:25:03.724Z,5.30
2018-08-17T22:27:30.308Z,4.60
2018-08-17T22:29:57.784Z,3.93
2018-08-17T22:32:24.517Z,4.53
2018-08-17T22:34:51.369Z,4.40
2018-08-17T22:37:17.882Z,3.53
2018-08-17T22:39:44.318Z,5.47
2018-08-17T22:42:10.902Z,4.20
2018-08-17T22:44:37.302Z,6.73
2018-08-17T22:47:06.370Z,4.10
2018-08-17T22:49:33.246Z,4.87
2018-08-17T22:51:59.842Z,3.27
2018-08-17T22:54:26.314Z,7.43
2018-08-17T22:56:52.758Z,2.97
2018-08-17T22:59:19.194Z,3.80
2018-08-17T23:01:45.648Z,5.53
2018-08-17T23:04:12.089Z,5.23
2018-08-17T23:06:38.646Z,3.50
2018-08-17T23:09:05.327Z,3.47
2018-08-17T23:11:33.383Z,4.50
2018-08-17T23:14:04.118Z,4.43
2018-08-17T23:16:30.544Z,5.77
2018-08-17T23:18:57.014Z,4.50
2018-08-17T23:21:23.451Z,5.90
2018-08-17T23:23:49.925Z,5.70
2018-08-17T23:26:16.326Z,6.60
2018-08-17T23:28:42.741Z,4.60
2018-08-17T23:31:09.190Z,3.70
2018-08-17T23:33:35.618Z,3.30
2018-08-17T23:36:02.070Z,3.67
2018-08-17T23:38:28.502Z,3.13
2018-08-17T23:40:54.951Z,2.43
2018-08-17T23:43:21.390Z,2.87
2018-08-17T23:45:47.840Z,2.67
2018-08-17T23:48:14.271Z,3.37
2018-08-17T23:50:40.723Z,3.23
2018-08-17T23:53:07.207Z,3.37
2018-08-17T23:55:33.594Z,3.03
2018-08-17T23:58:00.034Z,2.70
